createdAt,value
2023-03-27T00:01:34.144Z,4.60
2023-03-27T00:04:02.225Z,4.60
2023-03-27T00:06:30.273Z,4.50
2023-03-27T00:08:58.213Z,4.50
2023-03-27T00:11:26.203Z,4.50
2023-03-27T00:13:54.769Z,4.40
2023-03-27T00:16:26.736Z,4.40
2023-03-27T00:18:56.075Z,4.40
2023-03-27T00:21:24.337Z,4.40
2023-03-27T00:23:52.499Z,4.30
2023-03-27T00:26:21.983Z,4.30
2023-03-27T00:28:50.408Z,4.30
2023-03-27T00:31:18.421Z,4.30
2023-03-27T00:33:47.828Z,4.30
2023-03-27T00:36:16.203Z,4.20
2023-03-27T00:38:45.772Z,4.20
2023-03-27T00:41:13.910Z,4.20
2023-03-27T00:43:43.975Z,4.20
2023-03-27T00:46:31.389Z,4.30
2023-03-27T00:49:03.088Z,4.10
2023-03-27T00:51:31.793Z,4.10
2023-03-27T00:54:00.835Z,4.10
2023-03-27T00:56:28.918Z,4.00
2023-03-27T00:59:00.809Z,4.00
2023-03-27T01:01:30.870Z,3.90
2023-03-27T01:04:03.389Z,3.90
2023-03-27T01:06:32.208Z,3.90
2023-03-27T01:09:00.127Z,3.90
2023-03-27T01:11:39.254Z,3.80
2023-03-27T01:14:14.068Z,3.80
2023-03-27T01:16:53.550Z,3.70
2023-03-27T01:19:54.564Z,3.70
2023-03-27T01:23:04.177Z,3.70
2023-03-27T01:26:05.884Z,3.70
2023-03-27T01:28:44.020Z,3.60
2023-03-27T01:31:26.168Z,3.60
2023-03-27T01:34:29.625Z,3.50
2023-03-27T01:37:13.426Z,3.60
2023-03-27T01:39:51.236Z,3.50
2023-03-27T01:42:23.424Z,3.50
2023-03-27T01:44:59.098Z,3.50
2023-03-27T01:47:35.924Z,3.40
2023-03-27T01:50:11.762Z,3.40
2023-03-27T01:52:43.122Z,3.40
2023-03-27T01:55:19.044Z,3.40
2023-03-27T01:57:50.457Z,3.40
2023-03-27T02:00:22.717Z,3.40
2023-03-27T02:02:55.063Z,3.40
2023-03-27T02:05:28.695Z,3.40
2023-03-27T02:08:01.211Z,3.30
2023-03-27T02:10:34.046Z,3.30
2023-03-27T02:13:08.196Z,3.30
2023-03-27T02:15:40.681Z,3.30
2023-03-27T02:18:13.243Z,3.30
2023-03-27T02:20:42.092Z,3.30
2023-03-27T02:23:10.145Z,3.30
2023-03-27T02:25:40.783Z,3.30
2023-03-27T02:28:34.049Z,3.30
2023-03-27T02:31:32.997Z,3.20
2023-03-27T02:34:19.431Z,3.20
2023-03-27T02:36:57.598Z,3.20
2023-03-27T02:39:35.896Z,3.20
2023-03-27T02:42:10.926Z,3.20
2023-03-27T02:44:46.799Z,3.20
2023-03-27T02:47:22.491Z,3.20
2023-03-27T02:49:53.574Z,3.10
2023-03-27T02:52:27.052Z,3.10
2023-03-27T02:55:04.794Z,3.10
2023-03-27T02:57:39.558Z,3.10
2023-03-27T03:00:25.408Z,3.10
2023-03-27T03:03:00.003Z,3.10
2023-03-27T03:05:28.599Z,3.10
2023-03-27T03:07:58.178Z,3.10
2023-03-27T03:10:27.703Z,3.10
2023-03-27T03:12:57.023Z,3.10
2023-03-27T03:15:25.006Z,3.00
2023-03-27T03:17:53.025Z,3.00
2023-03-27T03:20:21.541Z,3.00
2023-03-27T03:22:49.435Z,3.00
2023-03-27T03:25:17.876Z,3.00
2023-03-27T03:27:45.807Z,3.00
2023-03-27T03:30:17.058Z,3.00
2023-03-27T03:32:47.428Z,3.00
2023-03-27T03:35:15.719Z,3.00
2023-03-27T03:37:51.116Z,2.90
2023-03-27T03:40:20.065Z,2.90
2023-03-27T03:42:49.101Z,2.90
2023-03-27T03:45:18.982Z,2.90
2023-03-27T03:47:47.690Z,2.90
2023-03-27T03:50:15.890Z,2.90
2023-03-27T03:52:44.006Z,2.90
2023-03-27T03:55:12.936Z,2.80
2023-03-27T03:57:41.889Z,2.80
2023-03-27T04:00:12.226Z,2.80
2023-03-27T04:02:43.567Z,2.80
2023-03-27T04:05:11.540Z,2.80
2023-03-27T04:07:40.901Z,2.80
2023-03-27T04:10:10.110Z,2.80
2023-03-27T04:12:38.019Z,2.70
2023-03-27T04:15:07.222Z,2.70
2023-03-27T04:17:35.199Z,2.70
2023-03-27T04:20:06.370Z,2.70
2023-03-27T04:22:37.831Z,2.70
2023-03-27T04:25:06.902Z,2.60
2023-03-27T04:27:35.591Z,2.60
2023-03-27T04:30:03.517Z,2.60
2023-03-27T04:32:31.473Z,2.60
2023-03-27T04:34:59.408Z,2.50
2023-03-27T04:37:28.854Z,2.50
2023-03-27T04:39:56.712Z,2.50
2023-03-27T04:42:24.743Z,2.50
2023-03-27T04:44:53.220Z,2.50
2023-03-27T04:47:21.422Z,2.50
2023-03-27T04:49:51.128Z,2.50
2023-03-27T04:52:19.421Z,2.50
2023-03-27T04:54:48.612Z,2.50
2023-03-27T04:57:19.060Z,2.50
2023-03-27T04:59:48.661Z,2.50
2023-03-27T05:02:16.737Z,2.50
2023-03-27T05:04:45.613Z,2.40
2023-03-27T05:07:13.499Z,2.40
2023-03-27T05:09:41.411Z,2.40
2023-03-27T05:12:10.734Z,2.40
2023-03-27T05:14:38.605Z,2.40
2023-03-27T05:17:06.910Z,2.40
2023-03-27T05:19:35.175Z,2.40
2023-03-27T05:22:03.077Z,2.40
2023-03-27T05:24:31.072Z,2.40
2023-03-27T05:26:58.954Z,2.50
2023-03-27T05:29:28.228Z,2.50
2023-03-27T05:31:56.169Z,2.40
2023-03-27T05:34:24.166Z,2.50
2023-03-27T05:36:52.133Z,2.50
2023-03-27T05:39:20.054Z,2.50
2023-03-27T05:41:48.056Z,2.50
2023-03-27T05:44:15.962Z,2.60
2023-03-27T05:46:45.208Z,2.60
2023-03-27T05:49:13.140Z,2.60
2023-03-27T05:51:46.993Z,2.70
2023-03-27T05:54:15.330Z,2.70
2023-03-27T05:56:43.434Z,2.80
2023-03-27T05:59:13.812Z,2.90
2023-03-27T06:01:41.777Z,3.00
2023-03-27T06:04:12.392Z,3.10
2023-03-27T06:06:41.622Z,3.20
2023-03-27T06:09:09.707Z,3.30
2023-03-27T06:11:38.040Z,3.40
2023-03-27T06:14:05.987Z,3.50
2023-03-27T06:16:34.192Z,3.70
2023-03-27T06:19:02.857Z,3.80
2023-03-27T06:21:34.547Z,3.90
2023-03-27T06:24:02.562Z,4.00
2023-03-27T06:26:30.545Z,4.10
2023-03-27T06:28:58.471Z,4.20
2023-03-27T06:31:27.275Z,4.30
2023-03-27T06:33:56.207Z,4.40
2023-03-27T06:36:25.004Z,4.50
2023-03-27T06:38:56.362Z,4.60
2023-03-27T06:41:24.444Z,4.70
2023-03-27T06:43:52.492Z,4.70
2023-03-27T06:46:20.441Z,4.80
2023-03-27T06:48:51.048Z,4.80
2023-03-27T06:51:22.834Z,5.00
2023-03-27T06:53:50.877Z,5.00
2023-03-27T06:56:20.234Z,5.10
2023-03-27T06:58:48.160Z,5.20
2023-03-27T07:01:16.145Z,5.30
2023-03-27T07:03:44.273Z,5.40
2023-03-27T07:06:12.153Z,5.40
2023-03-27T07:08:40.056Z,5.50
2023-03-27T07:11:12.041Z,5.50
2023-03-27T07:13:42.535Z,5.50
2023-03-27T07:16:12.279Z,5.50
2023-03-27T07:18:41.940Z,5.50
2023-03-27T07:21:10.025Z,5.50
2023-03-27T07:23:37.920Z,5.40
2023-03-27T07:26:06.660Z,5.40
2023-03-27T07:28:38.345Z,5.40
2023-03-27T07:31:29.361Z,5.40
2023-03-27T07:33:58.800Z,5.40
2023-03-27T07:36:26.893Z,5.50
2023-03-27T07:38:54.856Z,5.70
2023-03-27T07:41:23.170Z,5.80
2023-03-27T07:43:51.253Z,5.80
2023-03-27T07:46:20.543Z,5.90
2023-03-27T07:48:49.098Z,6.10
2023-03-27T07:51:18.307Z,6.20
2023-03-27T07:53:46.855Z,6.30
2023-03-27T07:56:14.816Z,6.30
2023-03-27T07:58:42.833Z,6.30
2023-03-27T08:01:11.641Z,6.30
2023-03-27T08:03:41.736Z,6.40
2023-03-27T08:06:10.474Z,6.40
2023-03-27T08:08:38.427Z,6.50
2023-03-27T08:11:11.440Z,6.50
2023-03-27T08:13:44.277Z,6.50
2023-03-27T08:16:14.815Z,6.50
2023-03-27T08:18:44.378Z,6.60
2023-03-27T08:21:12.643Z,6.70
2023-03-27T08:23:41.203Z,6.80
2023-03-27T08:26:09.244Z,7.10
2023-03-27T08:28:38.571Z,7.20
2023-03-27T08:31:12.067Z,7.40
2023-03-27T08:33:41.870Z,7.60
2023-03-27T08:36:14.278Z,7.90
2023-03-27T08:38:43.298Z,8.20
2023-03-27T08:41:28.142Z,8.40
2023-03-27T08:43:57.660Z,8.70
2023-03-27T08:46:28.976Z,9.00
2023-03-27T08:49:03.068Z,9.30
2023-03-27T08:51:37.292Z,9.70
2023-03-27T08:54:09.051Z,9.90
2023-03-27T08:56:37.394Z,10.00
2023-03-27T08:59:13.151Z,10.00
2023-03-27T09:01:48.877Z,9.90
2023-03-27T09:04:37.425Z,9.70
2023-03-27T09:07:12.593Z,9.50
2023-03-27T09:09:50.442Z,9.20
2023-03-27T09:12:32.146Z,9.00
2023-03-27T09:15:05.162Z,8.80
2023-03-27T09:17:38.877Z,8.60
2023-03-27T09:20:17.652Z,8.40
2023-03-27T09:22:52.672Z,8.30
2023-03-27T09:25:27.426Z,8.40
2023-03-27T09:27:56.128Z,8.70
2023-03-27T09:30:27.880Z,9.00
2023-03-27T09:32:58.778Z,9.60
2023-03-27T09:35:27.395Z,10.10
2023-03-27T09:38:01.155Z,10.50
2023-03-27T09:40:33.642Z,11.10
2023-03-27T09:43:09.104Z,11.70
2023-03-27T09:45:39.243Z,12.80
2023-03-27T09:48:13.201Z,14.10
2023-03-27T09:50:45.758Z,15.80
2023-03-27T09:53:17.340Z,17.60
2023-03-27T09:55:52.806Z,19.50
2023-03-27T09:58:29.723Z,21.20
2023-03-27T10:01:16.167Z,22.90
2023-03-27T10:03:50.125Z,24.30
2023-03-27T10:06:26.410Z,23.70
2023-03-27T10:08:56.562Z,22.40
2023-03-27T10:11:27.270Z,20.70
2023-03-27T10:13:56.393Z,19.10
2023-03-27T10:16:24.904Z,17.70
2023-03-27T10:18:56.621Z,17.40
2023-03-27T10:21:30.671Z,18.50
2023-03-27T10:24:07.727Z,19.80
2023-03-27T10:26:38.725Z,21.70
2023-03-27T10:29:23.078Z,23.20
2023-03-27T10:31:54.955Z,24.70
2023-03-27T10:34:37.842Z,26.00
2023-03-27T10:37:27.974Z,27.00
2023-03-27T10:40:00.773Z,28.10
2023-03-27T10:42:32.295Z,28.90
2023-03-27T10:45:01.248Z,27.60
2023-03-27T10:47:33.657Z,25.80
2023-03-27T10:50:11.552Z,23.70
2023-03-27T10:52:49.833Z,21.70
2023-03-27T10:55:35.845Z,20.90
2023-03-27T10:58:08.566Z,22.00
2023-03-27T11:00:41.052Z,23.50
2023-03-27T11:03:15.930Z,25.00
2023-03-27T11:05:48.232Z,26.20
2023-03-27T11:08:22.603Z,27.20
2023-03-27T11:10:52.168Z,28.10
2023-03-27T11:13:24.448Z,28.10
2023-03-27T11:15:55.652Z,28.20
2023-03-27T11:18:28.565Z,27.50
2023-03-27T11:21:00.257Z,26.70
2023-03-27T11:23:34.644Z,26.40
2023-03-27T11:26:06.504Z,25.50
2023-03-27T11:28:43.369Z,24.20
2023-03-27T11:31:17.379Z,22.60
2023-03-27T11:33:51.340Z,21.00
2023-03-27T11:36:54.539Z,20.80
2023-03-27T11:39:27.715Z,21.00
2023-03-27T11:41:59.716Z,20.70
2023-03-27T11:44:30.342Z,19.70
2023-03-27T11:47:18.758Z,18.80
2023-03-27T11:49:58.421Z,17.70
2023-03-27T11:52:40.400Z,16.90
2023-03-27T11:55:17.382Z,16.30
2023-03-27T11:58:04.227Z,15.90
2023-03-27T12:00:36.745Z,15.30
2023-03-27T12:03:23.305Z,14.90
2023-03-27T12:06:05.647Z,14.40
2023-03-27T12:08:46.211Z,13.90
2023-03-27T12:11:14.184Z,13.20
2023-03-27T12:14:23.979Z,12.20
2023-03-27T12:17:19.437Z,11.30
2023-03-27T12:20:22.406Z,10.60
2023-03-27T12:22:56.467Z,10.00
2023-03-27T12:25:47.319Z,9.80
2023-03-27T12:28:31.148Z,9.70
2023-03-27T12:31:13.454Z,9.80
2023-03-27T12:33:53.107Z,9.80
2023-03-27T12:36:24.276Z,9.80
2023-03-27T12:38:54.224Z,9.70
2023-03-27T12:41:24.815Z,9.60
2023-03-27T12:43:56.748Z,9.60
2023-03-27T12:46:38.820Z,9.70
2023-03-27T12:49:48.018Z,10.00
2023-03-27T12:52:18.797Z,10.30
2023-03-27T12:55:05.790Z,10.60
2023-03-27T12:57:43.969Z,10.80
2023-03-27T13:00:21.702Z,11.00
2023-03-27T13:03:21.781Z,11.00
2023-03-27T13:06:03.649Z,11.10
2023-03-27T13:08:45.032Z,11.10
2023-03-27T13:11:28.752Z,11.10
2023-03-27T13:14:34.437Z,11.10
2023-03-27T13:17:22.234Z,11.00
2023-03-27T13:19:59.687Z,11.10
2023-03-27T13:22:46.728Z,11.10
2023-03-27T13:25:26.251Z,11.10
2023-03-27T13:28:30.559Z,11.10
2023-03-27T13:31:00.013Z,11.10
2023-03-27T13:33:40.522Z,11.10
2023-03-27T13:36:14.440Z,11.00
2023-03-27T13:39:15.742Z,10.80
2023-03-27T13:42:11.427Z,10.70
2023-03-27T13:44:50.035Z,10.50
2023-03-27T13:47:51.973Z,10.40
2023-03-27T13:50:33.919Z,10.40
2023-03-27T13:53:23.563Z,10.50
2023-03-27T13:56:05.048Z,10.70
2023-03-27T13:59:03.701Z,10.90
2023-03-27T14:01:46.241Z,11.10
2023-03-27T14:04:36.906Z,11.20
2023-03-27T14:07:46.999Z,11.20
2023-03-27T14:10:46.955Z,11.10
2023-03-27T14:13:41.159Z,10.90
2023-03-27T14:16:42.116Z,10.80
2023-03-27T14:19:33.196Z,10.80
2023-03-27T14:22:04.833Z,10.80
2023-03-27T14:24:38.567Z,10.80
2023-03-27T14:27:12.677Z,10.70
2023-03-27T14:29:40.748Z,10.60
2023-03-27T14:32:14.826Z,10.50
2023-03-27T14:34:54.058Z,10.40
2023-03-27T14:37:29.950Z,10.20
2023-03-27T14:39:59.494Z,10.10
2023-03-27T14:42:32.853Z,10.00
2023-03-27T14:45:20.607Z,9.90
2023-03-27T14:47:50.817Z,9.90
2023-03-27T14:50:19.331Z,9.80
2023-03-27T14:52:52.532Z,9.70
2023-03-27T14:55:22.780Z,9.60
2023-03-27T14:57:56.218Z,9.50
2023-03-27T15:00:26.674Z,9.30
2023-03-27T15:02:57.129Z,9.10
2023-03-27T15:05:25.201Z,8.90
2023-03-27T15:07:54.615Z,8.80
2023-03-27T15:10:25.973Z,8.90
2023-03-27T15:12:56.487Z,9.00
2023-03-27T15:15:28.010Z,9.20
2023-03-27T15:17:59.812Z,9.30
2023-03-27T15:20:31.828Z,9.40
2023-03-27T15:23:07.105Z,9.60
2023-03-27T15:25:39.193Z,9.50
2023-03-27T15:28:14.713Z,9.50
2023-03-27T15:30:51.256Z,9.50
2023-03-27T15:33:23.001Z,9.50
2023-03-27T15:35:54.402Z,9.50
2023-03-27T15:38:28.944Z,9.30
2023-03-27T15:41:02.253Z,9.00
2023-03-27T15:43:32.069Z,8.70
2023-03-27T15:46:15.136Z,8.40
2023-03-27T15:48:45.581Z,8.30
2023-03-27T15:51:27.846Z,8.20
2023-03-27T15:53:56.678Z,8.20
2023-03-27T15:56:27.165Z,8.10
2023-03-27T15:59:00.150Z,7.90
2023-03-27T16:01:32.043Z,7.80
2023-03-27T16:04:04.128Z,7.70
2023-03-27T16:06:36.568Z,7.50
2023-03-27T16:09:05.906Z,7.50
2023-03-27T16:11:42.746Z,7.40
2023-03-27T16:14:30.362Z,7.50
2023-03-27T16:17:22.530Z,7.50
2023-03-27T16:19:53.477Z,7.60
2023-03-27T16:22:24.015Z,7.70
2023-03-27T16:24:52.620Z,7.80
2023-03-27T16:27:23.468Z,7.90
2023-03-27T16:29:53.455Z,8.10
2023-03-27T16:32:22.867Z,8.10
2023-03-27T16:34:52.457Z,8.10
2023-03-27T16:37:22.068Z,8.00
2023-03-27T16:39:50.132Z,8.00
2023-03-27T16:42:19.814Z,8.00
2023-03-27T16:44:47.903Z,7.90
2023-03-27T16:47:17.985Z,7.90
2023-03-27T16:49:53.454Z,7.80
2023-03-27T16:52:28.284Z,7.80
2023-03-27T16:54:56.284Z,7.70
2023-03-27T16:57:25.655Z,7.60
2023-03-27T16:59:53.561Z,7.50
2023-03-27T17:02:25.460Z,7.50
2023-03-27T17:04:53.533Z,7.40
2023-03-27T17:07:21.509Z,7.40
2023-03-27T17:09:49.492Z,7.30
2023-03-27T17:12:17.473Z,7.30
2023-03-27T17:14:45.375Z,7.20
2023-03-27T17:17:13.315Z,7.20
2023-03-27T17:19:42.603Z,7.10
2023-03-27T17:22:12.634Z,7.00
2023-03-27T17:24:55.478Z,7.00
2023-03-27T17:27:25.659Z,6.90
2023-03-27T17:29:55.513Z,6.90
2023-03-27T17:32:23.735Z,6.80
2023-03-27T17:34:53.176Z,6.80
2023-03-27T17:37:22.292Z,6.70
2023-03-27T17:39:50.889Z,6.70
2023-03-27T17:42:19.143Z,6.60
2023-03-27T17:44:47.352Z,6.60
2023-03-27T17:47:15.557Z,6.50
2023-03-27T17:49:45.021Z,6.50
2023-03-27T17:52:14.381Z,6.40
2023-03-27T17:54:42.567Z,6.40
2023-03-27T17:57:10.609Z,6.30
2023-03-27T17:59:38.866Z,6.30
2023-03-27T18:02:07.452Z,6.20
2023-03-27T18:04:36.414Z,6.20
2023-03-27T18:07:04.447Z,6.10
2023-03-27T18:09:33.899Z,6.10
2023-03-27T18:12:01.866Z,6.00
2023-03-27T18:14:29.816Z,6.00
2023-03-27T18:16:57.689Z,5.90
2023-03-27T18:19:25.938Z,5.90
2023-03-27T18:21:53.822Z,5.90
2023-03-27T18:24:21.977Z,5.80
2023-03-27T18:26:51.347Z,5.80
2023-03-27T18:29:21.126Z,5.70
2023-03-27T18:31:49.443Z,5.70
2023-03-27T18:34:17.809Z,5.70
2023-03-27T18:36:50.696Z,5.60
2023-03-27T18:39:18.932Z,5.60
2023-03-27T18:41:47.009Z,5.50
2023-03-27T18:44:16.965Z,5.50
2023-03-27T18:46:44.912Z,5.40
2023-03-27T18:49:23.568Z,5.50
2023-03-27T18:51:52.482Z,5.40
2023-03-27T18:54:20.429Z,5.40
2023-03-27T18:56:48.711Z,5.30
2023-03-27T18:59:18.212Z,5.30
2023-03-27T19:01:46.254Z,5.40
2023-03-27T19:04:17.043Z,5.30
2023-03-27T19:06:46.315Z,5.20
2023-03-27T19:09:14.457Z,5.20
2023-03-27T19:11:43.890Z,5.20
2023-03-27T19:14:12.204Z,5.10
2023-03-27T19:16:41.482Z,5.10
2023-03-27T19:19:09.448Z,5.10
2023-03-27T19:21:38.254Z,5.10
2023-03-27T19:24:06.895Z,5.10
2023-03-27T19:26:37.334Z,5.10
2023-03-27T19:29:06.568Z,5.00
2023-03-27T19:31:35.396Z,5.00
2023-03-27T19:34:05.033Z,5.00
2023-03-27T19:36:33.495Z,5.00
2023-03-27T19:39:01.628Z,4.90
2023-03-27T19:41:29.524Z,4.90
2023-03-27T19:44:00.154Z,4.90
2023-03-27T19:46:29.142Z,4.80
2023-03-27T19:48:57.430Z,4.80
2023-03-27T19:51:26.763Z,4.80
2023-03-27T19:53:55.435Z,4.80
2023-03-27T19:56:23.490Z,4.70
2023-03-27T19:58:52.278Z,4.70
2023-03-27T20:01:21.666Z,4.70
2023-03-27T20:03:49.808Z,4.60
2023-03-27T20:06:19.389Z,4.60
2023-03-27T20:08:49.708Z,4.60
2023-03-27T20:11:17.589Z,4.50
2023-03-27T20:13:55.950Z,4.50
2023-03-27T20:16:26.064Z,4.50
2023-03-27T20:19:03.031Z,4.50
2023-03-27T20:21:32.438Z,4.40
2023-03-27T20:24:01.845Z,4.40
2023-03-27T20:26:32.421Z,4.40
2023-03-27T20:29:00.440Z,4.40
2023-03-27T20:31:28.510Z,4.40
2023-03-27T20:33:56.520Z,4.40
2023-03-27T20:36:24.443Z,4.40
2023-03-27T20:38:59.046Z,4.40
2023-03-27T20:41:30.721Z,4.40
2023-03-27T20:43:59.261Z,4.40
2023-03-27T20:46:30.367Z,4.40
2023-03-27T20:48:58.610Z,4.30
2023-03-27T20:51:26.541Z,4.30
2023-03-27T20:53:57.318Z,4.30
2023-03-27T20:56:25.793Z,4.30
2023-03-27T20:58:54.982Z,4.30
2023-03-27T21:01:27.861Z,4.20
2023-03-27T21:03:58.464Z,4.20
2023-03-27T21:06:26.724Z,4.20
2023-03-27T21:08:54.776Z,4.20
2023-03-27T21:11:22.677Z,4.10
2023-03-27T21:13:51.355Z,4.10
2023-03-27T21:16:20.596Z,4.10
2023-03-27T21:18:48.597Z,4.10
2023-03-27T21:21:16.603Z,4.10
2023-03-27T21:23:44.694Z,4.00
2023-03-27T21:26:12.572Z,4.00
2023-03-27T21:28:40.743Z,4.00
2023-03-27T21:31:09.554Z,4.00
2023-03-27T21:33:39.662Z,4.00
2023-03-27T21:36:08.585Z,3.90
2023-03-27T21:38:36.838Z,3.90
2023-03-27T21:41:05.770Z,3.90
2023-03-27T21:43:33.798Z,3.90
2023-03-27T21:46:03.620Z,3.90
2023-03-27T21:48:31.800Z,3.80
2023-03-27T21:51:01.970Z,3.80
2023-03-27T21:53:30.091Z,3.80
2023-03-27T21:55:58.705Z,3.80
2023-03-27T21:58:27.102Z,3.80
2023-03-27T22:00:58.055Z,3.80
2023-03-27T22:03:26.591Z,3.70
2023-03-27T22:06:10.250Z,3.70
2023-03-27T22:08:42.831Z,3.70
2023-03-27T22:11:12.008Z,3.70
2023-03-27T22:13:40.465Z,3.70
2023-03-27T22:16:10.172Z,3.60
2023-03-27T22:18:38.262Z,3.60
2023-03-27T22:21:14.939Z,3.60
2023-03-27T22:23:44.340Z,3.60
2023-03-27T22:26:12.842Z,3.50
2023-03-27T22:28:40.770Z,3.50
2023-03-27T22:31:09.198Z,3.50
2023-03-27T22:33:37.889Z,3.50
2023-03-27T22:36:07.050Z,3.40
2023-03-27T22:38:35.200Z,3.40
2023-03-27T22:41:06.514Z,3.40
2023-03-27T22:43:34.567Z,3.40
2023-03-27T22:46:06.457Z,3.30
2023-03-27T22:48:34.602Z,3.30
2023-03-27T22:51:02.591Z,3.30
2023-03-27T22:53:31.682Z,3.30
2023-03-27T22:56:00.824Z,3.30
2023-03-27T22:58:31.331Z,3.20
2023-03-27T23:00:59.772Z,3.20
2023-03-27T23:03:29.113Z,3.20
2023-03-27T23:05:57.338Z,3.10
2023-03-27T23:08:27.281Z,3.10
2023-03-27T23:10:56.777Z,3.10
2023-03-27T23:13:24.757Z,3.00
2023-03-27T23:15:54.170Z,3.00
2023-03-27T23:18:24.646Z,3.00
2023-03-27T23:20:56.171Z,3.00
2023-03-27T23:23:24.283Z,2.90
2023-03-27T23:25:52.351Z,2.90
2023-03-27T23:28:20.751Z,2.90
2023-03-27T23:30:55.545Z,2.90
2023-03-27T23:33:25.209Z,2.80
2023-03-27T23:35:54.032Z,2.80
2023-03-27T23:38:22.249Z,2.80
2023-03-27T23:40:56.593Z,2.80
2023-03-27T23:43:25.061Z,2.70
2023-03-27T23:45:55.833Z,2.70
2023-03-27T23:48:24.350Z,2.70
2023-03-27T23:50:53.127Z,2.70
2023-03-27T23:53:21.974Z,2.70
2023-03-27T23:55:50.073Z,2.60
2023-03-27T23:58:17.993Z,2.60
